Terminal Aerodrome Forecast
Issued by NWS Burlington, VT

Home | Current Version | Previous Version | Text Only | Print | Product List | Glossary On
Versions: 1 2 3 4 5 6 7 8 9 10 11 12 13 14 15
034
FTUS41 KBTV 310520
TAFBTV
TAF
KBTV 310520Z 3106/0106 19006KT P6SM SCT250
     FM311400 24009G16KT P6SM SKC
     FM311900 30012G20KT P6SM SCT060
     FM010000 34007KT P6SM SCT060=

USA.gov is the U.S. government's official web portal to all federal, state and local government web resources and services.